Time;durP1;ratioP1;P1;durP2;ratioP2;P2;SDS_P1;SDS_P2;PMS_P1;PMS_P2;Temp;Humidity;BMP_temperature;BMP_pressure;BME280_temperature;BME280_humidity;BME280_pressure;Samples;Min_cycle;Max_cycle;Signal;HPM_P1;HPM_P2
2023/04/08 00:02:16;;;;;;;4.90;3.40;;;13.30;46.90;;;;;;4974003;28;20050;-74
2023/04/08 00:04:42;;;;;;;5.95;2.95;;;13.30;46.80;;;;;;4973678;28;20034;-73
2023/04/08 00:07:08;;;;;;;5.57;2.83;;;13.20;46.70;;;;;;4974147;28;20030;-74
2023/04/08 00:09:34;;;;;;;6.18;3.17;;;13.20;46.80;;;;;;5001942;28;20042;-74
2023/04/08 00:12:00;;;;;;;5.30;3.40;;;13.20;46.70;;;;;;4995014;28;20037;-74
2023/04/08 00:14:26;;;;;;;4.70;2.90;;;13.20;46.70;;;;;;4993840;28;20035;-74
2023/04/08 00:16:52;;;;;;;4.30;2.60;;;13.20;46.70;;;;;;4993600;28;20032;-74
2023/04/08 00:19:18;;;;;;;8.02;3.13;;;13.20;46.70;;;;;;4992248;28;20060;-74
2023/04/08 00:21:44;;;;;;;7.32;3.08;;;13.20;46.70;;;;;;4993385;28;20034;-73
2023/04/08 00:24:10;;;;;;;3.72;2.65;;;13.10;46.60;;;;;;4994333;28;20042;-73
2023/04/08 00:26:36;;;;;;;8.45;3.00;;;13.10;46.60;;;;;;4994240;28;20042;-74
2023/04/08 00:29:02;;;;;;;3.45;2.72;;;13.20;46.60;;;;;;4992691;28;20046;-74
2023/04/08 00:31:28;;;;;;;7.72;3.47;;;13.10;46.50;;;;;;4994854;28;20041;-75
2023/04/08 00:33:54;;;;;;;4.95;2.65;;;13.10;46.60;;;;;;4979482;28;20417;-74
2023/04/08 00:36:21;;;;;;;4.18;2.75;;;13.10;46.60;;;;;;4960720;28;20514;-74
2023/04/08 00:38:47;;;;;;;3.80;2.60;;;13.10;46.70;;;;;;4989134;28;20041;-74
2023/04/08 00:41:13;;;;;;;4.10;2.35;;;13.10;46.70;;;;;;4996444;28;21228;-75
2023/04/08 00:43:39;;;;;;;3.58;2.78;;;13.10;46.90;;;;;;4996540;28;20037;-74
2023/04/08 00:46:05;;;;;;;5.65;2.78;;;13.10;46.90;;;;;;4996218;28;20085;-75
2023/04/08 00:48:31;;;;;;;5.45;2.70;;;13.00;46.80;;;;;;4997418;28;20133;-75
2023/04/08 00:50:57;;;;;;;8.45;3.10;;;13.00;46.80;;;;;;4992265;28;20035;-75
2023/04/08 00:53:23;;;;;;;5.03;2.85;;;13.00;47.40;;;;;;4975745;28;20038;-74
2023/04/08 00:55:50;;;;;;;6.97;2.92;;;13.00;46.80;;;;;;4976356;28;20402;-75
2023/04/08 00:58:17;;;;;;;3.97;2.80;;;13.00;46.80;;;;;;4995677;28;20031;-75
2023/04/08 01:00:56;;;;;;;5.03;2.85;;;13.00;46.80;;;;;;4996274;28;20095;-75
2023/04/08 01:03:47;;;;;;;5.30;3.13;;;13.00;46.70;;;;;;4978907;28;21748;-74
2023/04/08 01:06:52;;;;;;;6.32;2.95;;;13.00;46.80;;;;;;4980475;28;20042;-77
2023/04/08 01:09:22;;;;;;;5.00;3.03;;;13.00;46.80;;;;;;4974068;28;20437;-75
2023/04/08 01:11:50;;;;;;;4.78;2.97;;;12.90;46.80;;;;;;4996738;28;20057;-75
2023/04/08 01:14:20;;;;;;;6.45;3.03;;;12.90;46.80;;;;;;4994839;28;20120;-75
2023/04/08 01:16:47;;;;;;;4.22;2.60;;;12.90;46.80;;;;;;5011156;28;20128;-75
2023/04/08 01:19:28;;;;;;;6.20;3.05;;;12.90;46.80;;;;;;4993131;28;20399;-75
2023/04/08 01:22:18;;;;;;;7.32;3.20;;;12.90;46.80;;;;;;5008971;28;20121;-76
2023/04/08 01:24:46;;;;;;;6.40;2.92;;;12.90;46.80;;;;;;4969644;28;20446;-75
2023/04/08 01:27:13;;;;;;;4.85;2.70;;;12.90;46.70;;;;;;4975464;28;20160;-76
2023/04/08 01:29:40;;;;;;;6.85;3.40;;;12.80;46.70;;;;;;4973949;28;20089;-76
2023/04/08 01:32:07;;;;;;;5.35;2.97;;;12.80;46.80;;;;;;4973964;28;20093;-76
2023/04/08 01:34:34;;;;;;;5.93;2.90;;;12.80;46.80;;;;;;4959633;28;20042;-76
2023/04/08 01:37:02;;;;;;;5.80;3.22;;;12.80;46.90;;;;;;4974379;28;20080;-75
2023/04/08 01:39:29;;;;;;;5.35;3.00;;;12.80;46.90;;;;;;4974428;28;20596;-75
2023/04/08 01:41:57;;;;;;;6.97;3.20;;;12.80;47.00;;;;;;4974418;28;20030;-74
2023/04/08 01:44:25;;;;;;;5.47;2.45;;;12.80;47.00;;;;;;4974273;28;20035;-75
2023/04/08 01:46:52;;;;;;;6.53;2.80;;;12.80;47.00;;;;;;4973390;28;20043;-76
2023/04/08 01:49:20;;;;;;;6.40;2.75;;;12.80;47.00;;;;;;4992120;28;20054;-74
2023/04/08 01:51:47;;;;;;;4.28;2.92;;;12.70;47.00;;;;;;4984686;28;20061;-73
2023/04/08 01:54:13;;;;;;;7.75;2.83;;;12.70;47.00;;;;;;4989852;28;20050;-74
2023/04/08 01:56:43;;;;;;;9.27;3.30;;;12.70;47.10;;;;;;4961278;28;20560;-75
2023/04/08 01:59:12;;;;;;;6.18;2.90;;;12.70;47.10;;;;;;4994097;28;20042;-74
2023/04/08 02:01:39;;;;;;;5.80;2.80;;;12.70;47.10;;;;;;4993835;28;20661;-75
2023/04/08 02:04:05;;;;;;;5.88;2.97;;;12.70;47.10;;;;;;4991613;28;20038;-75
2023/04/08 02:06:32;;;;;;;8.68;3.30;;;12.70;47.10;;;;;;4981999;28;20517;-74
2023/04/08 02:09:00;;;;;;;9.18;3.40;;;12.60;47.10;;;;;;4980789;28;20047;-74
2023/04/08 02:11:28;;;;;;;7.05;3.35;;;12.60;47.20;;;;;;4979780;28;20482;-74
2023/04/08 02:13:54;;;;;;;7.65;3.53;;;12.60;47.20;;;;;;4994483;28;20033;-75
2023/04/08 02:16:37;;;;;;;7.03;3.60;;;12.60;47.20;;;;;;4979372;28;20027;-76
2023/04/08 02:19:35;;;;;;;6.35;3.42;;;12.60;47.20;;;;;;5009011;28;20037;-74
2023/04/08 02:22:38;;;;;;;6.13;3.20;;;12.60;47.30;;;;;;4994518;28;20511;-75
2023/04/08 02:25:09;;;;;;;9.00;3.75;;;12.60;47.30;;;;;;4994233;28;20076;-75
2023/04/08 02:27:36;;;;;;;8.18;3.50;;;12.60;47.30;;;;;;4998550;28;20212;-74
2023/04/08 02:30:07;;;;;;;8.52;3.65;;;12.60;47.40;;;;;;4993945;28;20653;-74
2023/04/08 02:32:34;;;;;;;6.55;3.25;;;12.50;47.30;;;;;;4995575;28;20398;-75
2023/04/08 02:35:04;;;;;;;10.75;4.40;;;12.50;47.40;;;;;;4976496;28;20049;-75
2023/04/08 02:37:31;;;;;;;10.95;3.83;;;12.50;47.40;;;;;;4996031;28;20096;-76
2023/04/08 02:39:58;;;;;;;6.85;3.53;;;12.50;47.40;;;;;;4995763;28;20026;-75
2023/04/08 02:42:24;;;;;;;6.05;3.42;;;12.50;47.50;;;;;;4996005;28;20027;-74
2023/04/08 02:44:52;;;;;;;7.35;3.78;;;12.50;47.50;;;;;;4994683;28;20069;-75
2023/04/08 02:47:18;;;;;;;10.18;4.03;;;12.50;47.50;;;;;;4995228;28;20152;-74
2023/04/08 02:49:44;;;;;;;9.52;4.32;;;12.50;47.50;;;;;;4982334;28;20078;-76
2023/04/08 02:52:11;;;;;;;8.68;4.40;;;12.50;47.50;;;;;;4995152;28;20026;-75
2023/04/08 02:54:37;;;;;;;7.47;3.80;;;12.50;47.50;;;;;;4993741;28;20042;-76
2023/04/08 02:57:03;;;;;;;8.55;4.05;;;12.40;47.50;;;;;;4994170;28;20060;-75
2023/04/08 02:59:29;;;;;;;8.52;4.18;;;12.40;47.50;;;;;;4995995;28;20130;-77
2023/04/08 03:01:55;;;;;;;5.82;3.92;;;12.40;47.60;;;;;;4979060;28;20061;-78
2023/04/08 03:04:21;;;;;;;8.73;4.68;;;12.40;47.50;;;;;;4994661;28;20033;-76
2023/04/08 03:06:47;;;;;;;8.50;4.43;;;12.40;47.50;;;;;;4994657;28;20037;-76
2023/04/08 03:09:13;;;;;;;8.23;4.65;;;12.40;47.60;;;;;;4993661;28;20508;-77
2023/04/08 03:11:39;;;;;;;9.00;4.25;;;12.40;47.60;;;;;;4990784;28;20045;-75
2023/04/08 03:14:05;;;;;;;8.25;4.82;;;12.40;47.60;;;;;;4974238;28;20038;-77
2023/04/08 03:16:31;;;;;;;11.23;5.00;;;12.40;47.60;;;;;;4978624;28;20498;-75
2023/04/08 03:18:56;;;;;;;7.55;4.15;;;12.40;47.60;;;;;;4980658;28;20034;-77
2023/04/08 03:21:23;;;;;;;9.45;4.30;;;12.40;47.60;;;;;;4980043;28;20470;-76
2023/04/08 03:23:49;;;;;;;8.02;4.43;;;12.40;47.60;;;;;;4980686;28;20517;-76
2023/04/08 03:26:15;;;;;;;8.57;4.38;;;12.40;47.70;;;;;;4979790;28;20045;-76
2023/04/08 03:28:41;;;;;;;7.22;4.40;;;12.30;47.60;;;;;;4980022;28;20500;-76
2023/04/08 03:31:07;;;;;;;7.90;4.43;;;12.30;47.70;;;;;;4979127;28;20034;-75
2023/04/08 03:33:33;;;;;;;7.95;4.45;;;12.30;47.60;;;;;;4979495;28;20042;-76
2023/04/08 03:35:59;;;;;;;7.30;4.20;;;12.30;47.70;;;;;;4985084;28;21625;-76
2023/04/08 03:38:25;;;;;;;7.88;4.70;;;12.30;47.70;;;;;;4993221;28;20117;-75
2023/04/08 03:40:50;;;;;;;8.05;4.38;;;12.30;47.80;;;;;;4993325;28;20501;-75
2023/04/08 03:43:18;;;;;;;8.07;4.07;;;12.30;47.80;;;;;;4993340;28;20108;-74
2023/04/08 03:45:44;;;;;;;7.30;4.22;;;12.30;47.80;;;;;;4992455;28;20045;-74
2023/04/08 03:48:10;;;;;;;7.25;4.10;;;12.30;47.80;;;;;;4995851;28;20419;-74
2023/04/08 03:50:36;;;;;;;6.28;4.05;;;12.40;47.90;;;;;;4992966;28;20030;-74
2023/04/08 03:53:02;;;;;;;9.98;4.22;;;12.30;47.90;;;;;;4993239;28;20029;-74
2023/04/08 03:55:27;;;;;;;9.73;3.92;;;12.30;47.90;;;;;;4993230;28;20161;-74
2023/04/08 03:57:54;;;;;;;10.10;4.70;;;12.30;47.90;;;;;;4991228;28;20085;-74
2023/04/08 04:00:20;;;;;;;6.05;3.95;;;12.30;48.00;;;;;;4993690;28;20489;-75
2023/04/08 04:02:46;;;;;;;8.40;4.40;;;12.30;48.00;;;;;;4994382;28;20505;-74
2023/04/08 04:05:12;;;;;;;9.82;3.80;;;12.30;48.00;;;;;;4995725;28;20045;-74
2023/04/08 04:07:38;;;;;;;8.75;4.22;;;12.30;48.00;;;;;;4999542;28;20052;-75
2023/04/08 04:10:04;;;;;;;8.45;4.07;;;12.30;47.90;;;;;;4997898;28;20096;-74
2023/04/08 04:12:30;;;;;;;9.68;4.40;;;12.30;48.00;;;;;;4999039;28;20042;-75
2023/04/08 04:14:56;;;;;;;9.18;4.45;;;12.30;47.90;;;;;;4997759;28;20040;-74
2023/04/08 04:17:22;;;;;;;7.68;4.18;;;12.30;48.00;;;;;;4996000;28;20088;-74
2023/04/08 04:19:48;;;;;;;9.30;4.60;;;12.30;48.10;;;;;;4998835;28;20080;-74
2023/04/08 04:22:14;;;;;;;9.38;4.65;;;12.30;48.00;;;;;;4997540;28;20125;-75
2023/04/08 04:24:40;;;;;;;9.68;4.50;;;12.30;48.10;;;;;;4998448;28;20050;-75
2023/04/08 04:27:06;;;;;;;9.10;4.35;;;12.30;48.00;;;;;;4998824;28;20029;-74
2023/04/08 04:29:32;;;;;;;9.77;4.65;;;12.30;48.10;;;;;;4997030;28;20046;-74
2023/04/08 04:31:58;;;;;;;9.55;5.05;;;12.30;48.10;;;;;;4999301;28;20038;-74
2023/04/08 04:34:23;;;;;;;9.23;4.00;;;12.30;48.10;;;;;;4997914;28;20034;-75
2023/04/08 04:36:50;;;;;;;10.05;4.93;;;12.30;48.20;;;;;;4998003;28;20053;-76
2023/04/08 04:39:16;;;;;;;7.82;4.40;;;12.30;48.20;;;;;;4996408;28;20100;-76
2023/04/08 04:41:43;;;;;;;11.15;4.90;;;12.30;48.20;;;;;;4996750;28;20031;-76
2023/04/08 04:44:09;;;;;;;7.40;4.70;;;12.30;48.10;;;;;;4998400;28;20595;-76
2023/04/08 04:46:34;;;;;;;8.65;4.15;;;12.30;48.10;;;;;;4997682;28;20030;-75
2023/04/08 04:49:00;;;;;;;8.10;4.38;;;12.30;48.30;;;;;;4997485;28;20128;-76
2023/04/08 04:51:26;;;;;;;8.88;4.43;;;12.30;48.50;;;;;;4992802;28;20933;-76
2023/04/08 04:53:52;;;;;;;7.72;4.25;;;12.30;49.00;;;;;;4997729;28;20034;-75
2023/04/08 04:56:20;;;;;;;6.50;4.05;;;12.30;49.10;;;;;;4989297;28;20031;-76
2023/04/08 04:58:46;;;;;;;7.38;4.38;;;12.40;49.40;;;;;;4973054;28;20157;-74
2023/04/08 05:01:11;;;;;;;8.00;4.20;;;12.40;49.40;;;;;;4992606;28;20038;-75
2023/04/08 05:03:37;;;;;;;7.28;3.78;;;12.50;49.40;;;;;;4993654;28;20437;-75
2023/04/08 05:06:03;;;;;;;6.50;3.72;;;12.50;49.50;;;;;;4993072;28;20070;-74
2023/04/08 05:08:29;;;;;;;7.72;3.83;;;12.60;49.30;;;;;;4994982;28;20041;-78
2023/04/08 05:10:55;;;;;;;5.90;3.63;;;12.70;49.40;;;;;;4998099;28;20511;-74
2023/04/08 05:13:21;;;;;;;10.73;3.92;;;12.90;49.60;;;;;;4997362;28;20031;-75
2023/04/08 05:15:47;;;;;;;5.55;3.95;;;13.00;49.70;;;;;;4994811;28;20031;-74
2023/04/08 05:18:13;;;;;;;5.63;3.60;;;13.20;49.50;;;;;;4994043;28;20118;-80
2023/04/08 05:20:39;;;;;;;10.68;4.40;;;13.30;49.10;;;;;;4996024;28;20116;-79
2023/04/08 05:23:06;;;;;;;7.72;3.70;;;13.50;49.40;;;;;;4995177;28;20492;-80
2023/04/08 05:25:32;;;;;;;7.25;3.80;;;13.60;49.20;;;;;;4993507;28;20026;-80
2023/04/08 05:27:58;;;;;;;10.57;4.10;;;13.80;49.60;;;;;;4977345;28;20481;-80
2023/04/08 05:30:24;;;;;;;7.03;3.83;;;13.90;49.60;;;;;;4953975;28;20038;-78
2023/04/08 05:32:50;;;;;;;7.65;4.05;;;14.00;49.60;;;;;;4976636;28;20031;-81
2023/04/08 05:35:16;;;;;;;6.45;3.70;;;14.20;49.70;;;;;;4980062;28;20038;-78
2023/04/08 05:37:42;;;;;;;5.35;3.60;;;14.30;49.40;;;;;;4980757;28;20035;-79
2023/04/08 05:40:08;;;;;;;6.47;3.95;;;14.40;49.30;;;;;;4994882;28;20030;-79
2023/04/08 05:42:34;;;;;;;6.53;4.15;;;14.60;49.30;;;;;;5011869;28;20035;-80
2023/04/08 05:45:00;;;;;;;7.13;4.25;;;14.70;49.10;;;;;;5006624;28;20041;-76
2023/04/08 05:47:26;;;;;;;6.75;3.85;;;14.80;49.00;;;;;;4990663;28;20030;-78
2023/04/08 05:49:52;;;;;;;5.57;3.60;;;15.00;49.00;;;;;;4975817;28;20536;-75
2023/04/08 05:52:18;;;;;;;5.28;3.63;;;15.10;49.00;;;;;;4979843;28;20042;-75
2023/04/08 05:54:45;;;;;;;5.50;3.80;;;15.20;48.90;;;;;;4983642;28;20039;-76
2023/04/08 05:57:11;;;;;;;5.90;3.97;;;15.30;48.90;;;;;;4980040;28;20179;-73
2023/04/08 05:59:37;;;;;;;4.40;3.15;;;15.40;48.80;;;;;;4982893;28;20046;-74
2023/04/08 06:02:03;;;;;;;6.03;3.35;;;15.60;48.70;;;;;;4973924;28;20034;-77
2023/04/08 06:04:29;;;;;;;7.68;3.58;;;15.70;48.80;;;;;;4980038;28;20041;-76
2023/04/08 06:06:58;;;;;;;8.35;3.20;;;15.80;48.50;;;;;;4977112;28;20038;-73
2023/04/08 06:09:24;;;;;;;5.68;3.47;;;15.90;48.50;;;;;;4980110;28;20039;-74
2023/04/08 06:11:51;;;;;;;7.00;3.90;;;16.00;48.40;;;;;;4977729;28;20038;-76
2023/04/08 06:14:17;;;;;;;8.68;3.97;;;16.10;48.30;;;;;;4981213;28;20576;-76
2023/04/08 06:16:43;;;;;;;7.47;3.97;;;16.20;48.20;;;;;;4980920;28;20039;-74
2023/04/08 06:19:09;;;;;;;5.40;3.70;;;16.40;48.20;;;;;;4979493;28;20399;-73
2023/04/08 06:21:35;;;;;;;6.25;3.78;;;16.50;48.10;;;;;;4979903;28;20066;-75
2023/04/08 06:24:01;;;;;;;5.22;3.50;;;16.60;48.10;;;;;;4979551;28;20069;-72
2023/04/08 06:26:27;;;;;;;5.45;3.67;;;16.70;48.00;;;;;;4978448;28;20038;-72
2023/04/08 06:28:53;;;;;;;7.82;4.00;;;16.80;48.00;;;;;;4979344;28;20049;-74
2023/04/08 06:31:19;;;;;;;5.05;3.72;;;16.90;47.90;;;;;;4994418;28;20469;-86
2023/04/08 06:33:45;;;;;;;7.82;4.07;;;17.00;47.80;;;;;;4977571;28;20061;-79
2023/04/08 06:36:12;;;;;;;5.93;4.20;;;17.10;43.80;;;;;;4969551;28;20109;-80
2023/04/08 06:38:38;;;;;;;7.28;5.00;;;17.10;42.70;;;;;;4965976;28;20035;-77
2023/04/08 06:41:07;;;;;;;8.00;5.10;;;17.20;42.20;;;;;;4994965;28;20046;-80
2023/04/08 06:43:35;;;;;;;10.55;5.25;;;17.30;41.00;;;;;;4965119;28;20387;-77
2023/04/08 06:58:55;;;;;;;;;;;17.40;40.30;;;;;;5083513;27;20477;-76
2023/04/08 07:01:21;;;;;;;;;;;17.60;41.00;;;;;;5080564;28;20002;-76
2023/04/08 07:03:47;;;;;;;11.13;5.60;;;17.80;40.90;;;;;;5082115;28;19932;-79
2023/04/08 07:06:13;;;;;;;10.48;6.43;;;17.80;40.20;;;;;;5065940;28;20020;-77
2023/04/08 07:08:39;;;;;;;13.90;5.95;;;17.90;40.00;;;;;;5080984;28;20036;-78
2023/04/08 07:11:05;;;;;;;8.52;5.65;;;18.00;39.80;;;;;;5080432;28;20119;-80
2023/04/08 07:13:31;;;;;;;9.65;5.95;;;18.00;39.80;;;;;;5067696;28;20163;-80
2023/04/08 07:15:57;;;;;;;7.85;5.25;;;18.00;39.50;;;;;;5084544;28;20119;-80
2023/04/08 07:18:25;;;;;;;8.88;5.90;;;18.00;39.90;;;;;;5082945;28;20036;-81
2023/04/08 07:20:54;;;;;;;9.85;5.20;;;18.10;40.70;;;;;;5086624;28;20051;-80
2023/04/08 07:23:20;;;;;;;11.57;5.53;;;18.20;41.50;;;;;;5099213;28;20036;-80
2023/04/08 07:25:47;;;;;;;7.15;4.88;;;18.20;41.40;;;;;;5081896;28;20038;-84
2023/04/08 07:28:13;;;;;;;8.98;5.40;;;18.30;41.70;;;;;;5076682;28;20094;-77
2023/04/08 07:30:39;;;;;;;7.72;4.88;;;18.30;41.90;;;;;;5082268;27;20427;-76
2023/04/08 07:33:05;;;;;;;8.60;4.93;;;18.40;40.60;;;;;;5081099;28;20067;-80
2023/04/08 07:35:31;;;;;;;9.73;5.50;;;18.40;39.90;;;;;;5081855;28;20040;-79
2023/04/08 07:37:57;;;;;;;7.20;5.10;;;18.40;39.50;;;;;;5082624;28;20055;-78
2023/04/08 07:40:23;;;;;;;8.13;5.40;;;18.40;39.20;;;;;;5082596;28;20119;-76
2023/04/08 07:42:49;;;;;;;8.95;5.20;;;18.40;39.60;;;;;;5060345;28;20532;-82
2023/04/08 07:45:15;;;;;;;7.43;5.38;;;18.40;39.40;;;;;;5066418;28;20118;-77
2023/04/08 07:47:41;;;;;;;7.80;5.90;;;18.50;38.80;;;;;;5085875;28;20032;-78
2023/04/08 07:50:07;;;;;;;8.45;5.88;;;18.50;38.80;;;;;;5063610;28;20448;-79
2023/04/08 07:52:34;;;;;;;8.75;6.00;;;18.40;38.70;;;;;;5084138;28;20033;-85
2023/04/08 07:55:00;;;;;;;8.60;5.95;;;18.40;39.10;;;;;;5084240;28;20024;-84
2023/04/08 07:57:26;;;;;;;8.30;5.47;;;18.40;38.40;;;;;;5065901;28;20059;-84
2023/04/08 07:59:52;;;;;;;6.35;4.95;;;18.40;39.00;;;;;;5044684;28;20097;-85
2023/04/08 08:02:18;;;;;;;7.95;5.88;;;18.40;38.70;;;;;;5050047;28;20781;-83
2023/04/08 08:04:44;;;;;;;8.05;5.18;;;18.40;42.40;;;;;;5040998;28;20036;-76
2023/04/08 08:07:10;;;;;;;8.70;5.85;;;18.50;41.60;;;;;;5067935;28;20048;-80
2023/04/08 08:09:36;;;;;;;8.02;5.47;;;18.50;39.50;;;;;;5052014;28;20082;-78
2023/04/08 08:12:02;;;;;;;7.22;4.85;;;18.50;39.80;;;;;;5073135;28;20143;-77
2023/04/08 08:14:28;;;;;;;7.28;5.20;;;18.60;40.60;;;;;;5071135;28;20456;-77
2023/04/08 08:16:54;;;;;;;7.32;5.30;;;18.60;39.30;;;;;;5064548;28;20028;-77
2023/04/08 08:19:20;;;;;;;6.53;4.82;;;18.60;39.70;;;;;;5059124;28;20127;-76
2023/04/08 08:21:46;;;;;;;5.75;4.45;;;18.70;40.30;;;;;;5054034;28;20027;-80
2023/04/08 08:24:12;;;;;;;7.45;4.50;;;18.70;40.80;;;;;;5066638;28;20542;-82
2023/04/08 08:26:38;;;;;;;12.23;4.57;;;18.70;40.40;;;;;;5053793;28;20731;-76
2023/04/08 08:29:07;;;;;;;8.80;4.13;;;18.80;40.50;;;;;;5070116;28;20135;-76
2023/04/08 08:31:33;;;;;;;5.60;3.80;;;18.80;41.60;;;;;;5071326;28;20032;-76
2023/04/08 08:34:00;;;;;;;12.63;3.60;;;18.80;40.80;;;;;;5052846;28;20054;-71
2023/04/08 08:36:28;;;;;;;8.05;4.15;;;18.90;41.50;;;;;;5076107;28;20043;-71
2023/04/08 08:38:54;;;;;;;8.95;4.15;;;18.90;43.80;;;;;;5077490;28;20029;-70
2023/04/08 08:41:20;;;;;;;6.03;3.40;;;18.90;42.80;;;;;;5076883;28;20510;-70
2023/04/08 08:43:47;;;;;;;6.50;3.70;;;18.90;42.20;;;;;;5076521;28;20036;-70
2023/04/08 08:46:16;;;;;;;5.88;3.50;;;18.90;41.90;;;;;;5075462;28;20028;-70
2023/04/08 08:48:45;;;;;;;4.45;3.22;;;18.90;41.60;;;;;;5076811;28;20095;-70
2023/04/08 08:51:12;;;;;;;6.97;3.03;;;18.90;42.30;;;;;;5077229;28;20418;-70
2023/04/08 08:53:38;;;;;;;5.75;3.35;;;18.90;42.90;;;;;;5075933;28;20036;-70
2023/04/08 08:56:08;;;;;;;6.45;2.88;;;18.90;42.90;;;;;;5075348;28;20037;-70
2023/04/08 08:58:34;;;;;;;5.53;3.03;;;18.90;42.80;;;;;;5075689;28;20044;-70
2023/04/08 09:01:00;;;;;;;3.97;2.67;;;18.90;42.70;;;;;;5074860;28;20047;-70
2023/04/08 09:03:27;;;;;;;4.28;2.90;;;18.90;41.70;;;;;;5077142;28;20528;-70
2023/04/08 09:05:56;;;;;;;5.07;2.95;;;18.90;41.30;;;;;;5077046;28;20051;-70
2023/04/08 09:08:30;;;;;;;5.60;2.78;;;18.90;42.10;;;;;;5076580;28;20094;-70
2023/04/08 09:11:16;;;;;;;4.37;3.07;;;18.90;42.10;;;;;;5075007;28;20085;-69
2023/04/08 09:13:43;;;;;;;5.80;3.05;;;18.90;41.40;;;;;;5077408;28;20075;-70
2023/04/08 09:16:11;;;;;;;4.32;2.80;;;18.90;41.30;;;;;;5077494;28;20063;-69
2023/04/08 09:18:38;;;;;;;6.80;3.53;;;18.90;41.60;;;;;;5077082;28;20034;-70
2023/04/08 09:21:06;;;;;;;4.63;2.97;;;18.80;41.80;;;;;;5076329;28;20450;-70
2023/04/08 09:23:48;;;;;;;5.60;3.22;;;18.80;41.80;;;;;;5076156;28;20044;-70
2023/04/08 09:26:16;;;;;;;5.07;3.05;;;18.80;42.60;;;;;;5062024;28;20040;-70
2023/04/08 09:28:44;;;;;;;2.83;2.63;;;18.80;42.70;;;;;;5076706;28;20033;-69
2023/04/08 09:31:20;;;;;;;7.85;3.35;;;18.80;42.10;;;;;;5075042;28;20471;-70
2023/04/08 09:33:47;;;;;;;4.43;2.85;;;18.80;42.90;;;;;;5075802;28;20610;-70
2023/04/08 09:36:15;;;;;;;7.25;2.92;;;18.80;43.00;;;;;;5075785;28;20412;-70
2023/04/08 09:38:41;;;;;;;4.97;3.28;;;18.90;42.20;;;;;;5076937;28;20024;-70
2023/04/08 09:41:08;;;;;;;3.58;2.90;;;18.80;42.80;;;;;;5076433;28;20100;-70
2023/04/08 09:43:48;;;;;;;6.45;3.00;;;18.90;42.60;;;;;;5076157;28;20043;-70
2023/04/08 09:46:17;;;;;;;5.55;3.22;;;18.90;42.70;;;;;;5076432;28;20503;-70
2023/04/08 09:48:53;;;;;;;6.03;3.13;;;18.90;42.60;;;;;;5076404;28;20028;-70
2023/04/08 09:51:22;;;;;;;5.03;3.00;;;18.90;43.10;;;;;;5076658;28;20036;-69
2023/04/08 09:53:56;;;;;;;5.22;3.17;;;18.80;42.10;;;;;;5075320;28;20044;-70
2023/04/08 09:56:22;;;;;;;4.22;3.15;;;18.80;42.80;;;;;;5064535;28;20078;-70
2023/04/08 09:58:57;;;;;;;3.70;2.92;;;18.80;42.00;;;;;;5074598;28;20046;-70
2023/04/08 10:01:40;;;;;;;5.43;3.25;;;18.80;42.10;;;;;;5075110;28;20507;-70
2023/04/08 10:04:13;;;;;;;3.47;2.70;;;18.80;41.80;;;;;;5075447;28;20499;-69
2023/04/08 10:06:40;;;;;;;4.38;2.83;;;18.80;41.70;;;;;;5075800;28;20384;-70
2023/04/08 10:09:06;;;;;;;6.15;3.42;;;18.80;42.00;;;;;;5075195;28;20025;-69
2023/04/08 10:11:33;;;;;;;4.85;3.00;;;18.80;41.80;;;;;;5074990;28;20036;-70
2023/04/08 10:14:00;;;;;;;4.45;3.00;;;18.80;42.30;;;;;;5075389;28;20207;-70
2023/04/08 10:16:26;;;;;;;4.40;3.20;;;18.80;41.50;;;;;;5075901;28;20063;-70
2023/04/08 10:18:56;;;;;;;4.30;3.05;;;18.80;41.30;;;;;;5073137;28;20044;-70
2023/04/08 10:21:46;;;;;;;3.50;2.90;;;18.80;42.10;;;;;;5076251;28;20425;-70
2023/04/08 10:24:12;;;;;;;4.20;2.85;;;18.80;41.60;;;;;;5074304;28;20036;-70
2023/04/08 10:26:41;;;;;;;3.75;2.47;;;18.80;42.00;;;;;;5075496;28;20697;-70
2023/04/08 10:29:28;;;;;;;4.20;2.90;;;18.80;40.80;;;;;;5074115;28;20112;-70
2023/04/08 10:31:54;;;;;;;3.70;2.85;;;18.80;41.30;;;;;;5074846;28;20039;-70
2023/04/08 10:34:24;;;;;;;3.03;2.58;;;18.80;40.50;;;;;;5057792;28;20574;-70
2023/04/08 10:36:51;;;;;;;3.13;2.80;;;18.70;40.60;;;;;;5075565;28;20036;-69
2023/04/08 10:39:17;;;;;;;3.70;2.80;;;18.70;41.00;;;;;;5076613;28;20047;-70
2023/04/08 10:41:44;;;;;;;4.57;3.10;;;18.70;40.80;;;;;;5073358;28;20390;-69
2023/04/08 10:44:22;;;;;;;4.57;3.08;;;18.80;41.40;;;;;;5075606;28;20125;-70
2023/04/08 10:46:50;;;;;;;4.10;3.05;;;18.70;41.30;;;;;;5073821;28;20418;-70
2023/04/08 10:49:17;;;;;;;3.85;3.00;;;18.80;41.30;;;;;;5053364;28;20105;-69
2023/04/08 10:51:44;;;;;;;5.05;3.28;;;18.70;41.50;;;;;;5076008;28;20032;-70
2023/04/08 10:54:13;;;;;;;4.25;3.17;;;18.70;40.50;;;;;;5074833;28;20912;-69
2023/04/08 10:56:52;;;;;;;5.80;3.55;;;18.70;40.20;;;;;;5074842;28;20045;-70
2023/04/08 10:59:31;;;;;;;4.30;3.60;;;18.70;40.30;;;;;;5073079;28;20052;-70
2023/04/08 11:01:58;;;;;;;4.85;3.58;;;18.70;40.30;;;;;;5074743;28;20055;-69
2023/04/08 11:04:25;;;;;;;4.35;3.70;;;18.70;40.40;;;;;;5074651;28;20040;-69
2023/04/08 11:06:50;;;;;;;4.65;3.65;;;18.70;40.10;;;;;;5075681;28;20101;-69
2023/04/08 11:09:16;;;;;;;5.55;3.15;;;18.70;40.50;;;;;;5076219;28;20044;-69
2023/04/08 11:11:44;;;;;;;5.60;3.80;;;18.70;40.80;;;;;;5074856;28;20078;-69
2023/04/08 11:14:11;;;;;;;5.05;3.50;;;18.70;41.40;;;;;;5074591;28;20093;-69
2023/04/08 11:16:38;;;;;;;4.68;3.63;;;18.70;41.40;;;;;;5074835;28;20028;-69
2023/04/08 11:19:05;;;;;;;5.47;4.22;;;18.70;40.80;;;;;;5075445;28;20490;-69
2023/04/08 11:21:34;;;;;;;4.80;3.72;;;18.70;40.60;;;;;;5074889;28;20103;-70
2023/04/08 11:24:00;;;;;;;4.85;3.78;;;18.70;40.50;;;;;;5073881;28;20021;-70
2023/04/08 11:26:26;;;;;;;6.30;4.05;;;18.70;40.70;;;;;;5074490;28;20106;-70
2023/04/08 11:28:54;;;;;;;4.57;3.80;;;18.70;40.70;;;;;;5073518;28;20036;-70
2023/04/08 11:31:21;;;;;;;6.40;4.63;;;18.70;40.40;;;;;;5061359;28;20032;-70
2023/04/08 11:33:48;;;;;;;5.63;4.00;;;18.70;40.20;;;;;;5075876;28;20032;-70
2023/04/08 11:36:16;;;;;;;4.93;4.15;;;18.70;40.90;;;;;;5079466;28;20063;-70
2023/04/08 11:38:43;;;;;;;5.40;4.50;;;18.70;40.50;;;;;;5078779;28;20052;-70
2023/04/08 11:41:10;;;;;;;8.00;4.32;;;18.70;40.10;;;;;;5078208;28;20060;-70
2023/04/08 11:43:37;;;;;;;5.45;4.45;;;18.70;40.40;;;;;;5077719;28;20131;-69
2023/04/08 11:46:11;;;;;;;4.82;4.30;;;18.70;40.40;;;;;;5078320;28;20036;-70
2023/04/08 11:48:37;;;;;;;7.32;4.70;;;18.70;40.40;;;;;;5078561;28;20499;-69
2023/04/08 11:51:07;;;;;;;6.15;4.45;;;18.70;41.00;;;;;;5078084;28;20052;-69
2023/04/08 11:53:35;;;;;;;5.50;4.10;;;18.70;41.10;;;;;;5077369;28;20036;-70
2023/04/08 11:56:24;;;;;;;7.50;4.88;;;18.70;41.50;;;;;;5077825;28;20035;-69
2023/04/08 11:58:51;;;;;;;9.38;4.78;;;18.70;41.00;;;;;;5078904;28;20546;-70
2023/04/08 12:01:17;;;;;;;7.13;4.47;;;18.70;40.90;;;;;;5077519;28;20462;-69
2023/04/08 12:04:00;;;;;;;7.95;4.15;;;18.70;41.40;;;;;;5078460;28;20114;-69
2023/04/08 12:06:27;;;;;;;8.98;4.45;;;18.70;41.10;;;;;;5077192;28;20041;-70
2023/04/08 12:08:55;;;;;;;5.70;4.35;;;18.70;41.10;;;;;;5077998;28;20035;-70
2023/04/08 12:11:23;;;;;;;4.78;4.03;;;18.70;41.30;;;;;;5078121;28;20033;-70
2023/04/08 12:13:49;;;;;;;5.78;4.13;;;18.70;41.40;;;;;;5077645;28;20038;-71
2023/04/08 12:16:15;;;;;;;6.68;4.03;;;18.70;41.80;;;;;;5054002;28;20660;-70
2023/04/08 12:18:41;;;;;;;7.72;4.47;;;18.70;41.70;;;;;;5076651;28;20027;-69
2023/04/08 12:21:07;;;;;;;6.35;3.92;;;18.70;41.50;;;;;;5076151;28;20016;-70
2023/04/08 12:23:33;;;;;;;8.10;4.20;;;18.70;41.60;;;;;;5077253;28;20123;-70
2023/04/08 12:25:59;;;;;;;6.60;4.28;;;18.70;42.30;;;;;;5077889;28;20028;-69
2023/04/08 12:28:25;;;;;;;5.00;4.00;;;18.70;41.70;;;;;;5076901;28;20040;-69
2023/04/08 12:30:51;;;;;;;5.88;3.80;;;18.70;41.70;;;;;;5085913;28;20089;-69
2023/04/08 12:33:17;;;;;;;7.03;4.03;;;18.70;41.40;;;;;;5086750;28;20048;-69
2023/04/08 12:35:43;;;;;;;17.80;4.22;;;18.60;40.50;;;;;;5088214;28;20573;-68
2023/04/08 12:38:09;;;;;;;5.57;4.13;;;18.60;40.00;;;;;;5085412;28;20040;-68
2023/04/08 12:40:35;;;;;;;9.90;3.90;;;18.50;40.00;;;;;;5092994;28;20607;-69
2023/04/08 12:43:01;;;;;;;6.82;3.50;;;18.50;40.30;;;;;;5084039;28;20036;-69
2023/04/08 12:45:27;;;;;;;5.03;3.97;;;18.50;40.30;;;;;;5089948;28;20406;-68
2023/04/08 12:47:53;;;;;;;7.90;3.63;;;18.50;40.40;;;;;;5093098;28;20032;-69
2023/04/08 12:50:19;;;;;;;7.65;3.38;;;18.50;39.60;;;;;;5081833;28;20077;-68
2023/04/08 12:52:45;;;;;;;6.05;4.10;;;18.40;40.10;;;;;;5085107;28;20169;-68
2023/04/08 12:55:11;;;;;;;6.93;4.18;;;18.50;39.90;;;;;;5091615;28;20028;-68
2023/04/08 12:57:37;;;;;;;5.97;3.38;;;18.40;40.20;;;;;;5076935;28;20048;-68
2023/04/08 13:00:03;;;;;;;5.93;3.60;;;18.40;39.90;;;;;;5089832;28;20046;-67
2023/04/08 13:02:29;;;;;;;6.10;3.60;;;18.40;40.50;;;;;;5085721;28;20032;-68
2023/04/08 13:04:55;;;;;;;6.13;4.03;;;18.40;40.70;;;;;;5086961;28;20510;-67